createdAt,value
2023-09-23T00:03:47.559Z,56.87
2023-09-23T00:08:04.527Z,56.77
2023-09-23T00:12:21.010Z,58.44
2023-09-23T00:16:37.298Z,60.15
2023-09-23T00:20:53.866Z,58.50
2023-09-23T00:25:11.026Z,59.38
2023-09-23T00:29:30.146Z,58.81
2023-09-23T00:33:46.835Z,58.41
2023-09-23T00:38:03.868Z,57.92
2023-09-23T00:42:23.233Z,56.11
2023-09-23T00:46:41.394Z,55.75
2023-09-23T00:50:58.305Z,55.10
2023-09-23T00:55:16.219Z,57.46
2023-09-23T00:59:34.075Z,61.41
2023-09-23T01:03:51.255Z,61.58
2023-09-23T01:08:22.005Z,61.25
2023-09-23T01:12:38.334Z,62.23
2023-09-23T01:16:54.848Z,60.79
2023-09-23T01:21:11.221Z,61.38
2023-09-23T01:25:27.594Z,60.01
2023-09-23T01:29:43.911Z,61.25
2023-09-23T01:34:00.278Z,61.70
2023-09-23T01:38:17.054Z,62.18
2023-09-23T01:42:34.215Z,61.52
2023-09-23T01:46:50.960Z,61.42
2023-09-23T01:51:07.841Z,62.39
2023-09-23T01:55:24.204Z,64.50
2023-09-23T01:59:42.053Z,63.54
2023-09-23T02:03:59.594Z,62.17
2023-09-23T02:08:17.333Z,63.18
2023-09-23T02:12:34.610Z,62.72
2023-09-23T02:16:51.154Z,62.60
2023-09-23T02:21:08.732Z,62.05
2023-09-23T02:25:26.414Z,61.65
2023-09-23T02:29:42.982Z,61.52
2023-09-23T02:33:59.398Z,61.08
2023-09-23T02:38:15.833Z,58.93
2023-09-23T02:42:32.155Z,59.26
2023-09-23T02:46:49.749Z,58.74
2023-09-23T02:51:06.328Z,58.27
2023-09-23T02:55:22.819Z,60.03
2023-09-23T02:59:43.204Z,59.94
2023-09-23T03:04:08.134Z,59.96
2023-09-23T03:08:25.020Z,59.81
2023-09-23T03:12:52.634Z,60.00
2023-09-23T03:17:10.704Z,61.07
2023-09-23T03:21:27.170Z,61.29
2023-09-23T03:25:47.853Z,60.93
2023-09-23T03:30:07.236Z,61.19
2023-09-23T03:34:23.682Z,61.09
2023-09-23T03:38:40.051Z,60.86
2023-09-23T03:42:56.561Z,60.87
2023-09-23T03:47:12.984Z,60.58
2023-09-23T03:51:29.538Z,61.36
2023-09-23T03:55:45.927Z,61.28
2023-09-23T04:00:02.924Z,61.46
2023-09-23T04:04:19.396Z,61.88
2023-09-23T04:08:35.739Z,61.80
2023-09-23T04:12:54.451Z,62.32
2023-09-23T04:17:11.878Z,61.73
2023-09-23T04:21:28.647Z,61.04
2023-09-23T04:25:45.581Z,61.09
2023-09-23T04:30:13.036Z,60.93
2023-09-23T04:34:30.877Z,62.04
2023-09-23T04:38:47.554Z,61.36
2023-09-23T04:43:04.828Z,61.80
2023-09-23T04:47:21.319Z,61.99
2023-09-23T04:51:37.939Z,61.36
2023-09-23T04:55:54.349Z,61.41
2023-09-23T05:00:11.959Z,61.37
2023-09-23T05:04:28.747Z,61.31
2023-09-23T05:08:45.340Z,60.88
2023-09-23T05:13:01.851Z,60.80
2023-09-23T05:17:18.454Z,61.33
2023-09-23T05:21:35.029Z,61.56
2023-09-23T05:25:51.780Z,61.49
2023-09-23T05:30:11.910Z,61.46
2023-09-23T05:34:28.705Z,61.13
2023-09-23T05:38:45.262Z,61.21
2023-09-23T05:43:01.779Z,60.09
2023-09-23T05:47:18.320Z,61.61
2023-09-23T05:51:35.077Z,63.19
2023-09-23T05:55:51.824Z,62.53
2023-09-23T06:00:13.716Z,63.27
2023-09-23T06:04:31.754Z,63.12
2023-09-23T06:08:52.059Z,63.04
2023-09-23T06:13:09.058Z,63.66
2023-09-23T06:17:30.042Z,64.71
2023-09-23T06:21:46.990Z,62.79
2023-09-23T06:26:04.222Z,64.44
2023-09-23T06:30:20.673Z,65.35
2023-09-23T06:34:37.656Z,64.69
2023-09-23T06:38:54.360Z,64.91
2023-09-23T06:43:10.960Z,66.82
2023-09-23T06:47:27.646Z,66.84
2023-09-23T06:51:44.033Z,66.42
2023-09-23T06:56:00.533Z,66.21
2023-09-23T07:00:17.753Z,65.23
2023-09-23T07:04:34.379Z,67.31
2023-09-23T07:08:50.851Z,66.04
2023-09-23T07:13:09.925Z,66.56
2023-09-23T07:17:29.227Z,67.75
2023-09-23T07:21:45.751Z,66.40
2023-09-23T07:26:02.500Z,67.20
2023-09-23T07:30:19.282Z,67.70
2023-09-23T07:34:35.660Z,68.47
2023-09-23T07:38:52.042Z,69.10
2023-09-23T07:43:08.764Z,68.69
2023-09-23T07:47:26.743Z,70.64
2023-09-23T07:51:44.542Z,69.44
2023-09-23T07:56:01.269Z,68.74
2023-09-23T08:00:18.654Z,69.14
2023-09-23T08:04:39.089Z,69.18
2023-09-23T08:08:56.343Z,68.66
2023-09-23T08:13:12.811Z,68.02
2023-09-23T08:17:29.509Z,67.75
2023-09-23T08:21:47.242Z,67.91
2023-09-23T08:26:05.687Z,67.41
2023-09-23T08:30:22.813Z,66.48
2023-09-23T08:34:39.096Z,66.94
2023-09-23T08:38:55.727Z,66.04
2023-09-23T08:43:12.415Z,65.39
2023-09-23T08:47:30.492Z,64.14
2023-09-23T08:51:46.983Z,63.52
2023-09-23T08:56:03.806Z,62.35
2023-09-23T09:00:20.505Z,64.10
2023-09-23T09:04:37.594Z,66.52
2023-09-23T09:08:54.025Z,65.83
2023-09-23T09:13:10.531Z,65.00
2023-09-23T09:17:26.943Z,63.86
2023-09-23T09:21:43.328Z,65.24
2023-09-23T09:26:00.167Z,60.60
2023-09-23T09:30:17.065Z,60.86
2023-09-23T09:34:38.365Z,63.12
2023-09-23T09:38:56.192Z,63.66
2023-09-23T09:43:12.825Z,64.85
2023-09-23T09:47:29.737Z,63.88
2023-09-23T09:51:50.433Z,63.89
2023-09-23T09:56:07.875Z,64.40
2023-09-23T10:00:24.318Z,65.21
2023-09-23T10:04:46.317Z,66.71
2023-09-23T10:09:15.083Z,67.42
2023-09-23T10:13:33.214Z,66.25
2023-09-23T10:17:55.107Z,67.13
2023-09-23T10:22:19.689Z,66.91
2023-09-23T10:26:41.069Z,67.00
2023-09-23T10:31:08.256Z,66.89
2023-09-23T10:35:25.223Z,67.30
2023-09-23T10:39:46.151Z,67.71
2023-09-23T10:44:05.864Z,67.65
2023-09-23T10:48:22.774Z,67.64
2023-09-23T10:52:39.668Z,70.94
2023-09-23T10:57:08.048Z,69.79
2023-09-23T11:01:25.660Z,70.00
2023-09-23T11:05:45.148Z,68.84
2023-09-23T11:10:01.467Z,70.33
2023-09-23T11:14:21.571Z,70.29
2023-09-23T11:18:39.097Z,70.97
2023-09-23T11:23:05.250Z,70.87
2023-09-23T11:27:25.761Z,71.94
2023-09-23T11:31:42.095Z,70.27
2023-09-23T11:35:58.847Z,70.54
2023-09-23T11:40:18.964Z,69.56
2023-09-23T11:44:35.937Z,68.67
2023-09-23T11:48:52.430Z,68.18
2023-09-23T11:53:08.758Z,68.18
2023-09-23T11:57:25.112Z,67.85
2023-09-23T12:01:41.977Z,67.77
2023-09-23T12:05:59.008Z,67.28
2023-09-23T12:10:15.462Z,68.16
2023-09-23T12:14:31.881Z,68.63
2023-09-23T12:18:49.643Z,69.60
2023-09-23T12:23:06.054Z,70.32
2023-09-23T12:27:23.448Z,69.66
2023-09-23T12:31:39.832Z,71.26
2023-09-23T12:35:56.318Z,70.51
2023-09-23T12:40:12.904Z,70.70
2023-09-23T12:44:29.502Z,70.67
2023-09-23T12:48:46.821Z,69.61
2023-09-23T12:53:03.619Z,68.42
2023-09-23T12:57:19.977Z,69.17
2023-09-23T13:01:37.086Z,72.30
2023-09-23T13:05:53.619Z,73.06
2023-09-23T13:10:14.830Z,72.26
2023-09-23T13:14:31.393Z,72.01
2023-09-23T13:18:48.026Z,70.21
2023-09-23T13:23:10.220Z,70.17
2023-09-23T13:27:26.644Z,69.58
2023-09-23T13:31:43.056Z,69.09
2023-09-23T13:35:59.470Z,69.58
2023-09-23T13:40:16.269Z,67.85
2023-09-23T13:44:32.771Z,65.95
2023-09-23T13:48:49.427Z,67.36
2023-09-23T13:53:06.414Z,67.21
2023-09-23T13:57:23.174Z,66.93
2023-09-23T14:01:39.528Z,67.63
2023-09-23T14:05:55.931Z,68.44
2023-09-23T14:10:21.508Z,69.72
2023-09-23T14:14:39.095Z,68.69
2023-09-23T14:18:55.467Z,68.03
2023-09-23T14:23:12.574Z,68.38
2023-09-23T14:27:28.916Z,67.95
2023-09-23T14:31:45.346Z,66.49
2023-09-23T14:36:01.764Z,65.62
2023-09-23T14:40:18.298Z,66.00
2023-09-23T14:44:34.745Z,65.67
2023-09-23T14:48:51.157Z,64.65
2023-09-23T14:53:08.267Z,65.56
2023-09-23T14:57:24.870Z,64.72
2023-09-23T15:01:41.365Z,64.45
2023-09-23T15:05:57.908Z,65.19
2023-09-23T15:10:14.631Z,63.88
2023-09-23T15:14:31.250Z,63.09
2023-09-23T15:18:48.572Z,63.64
2023-09-23T15:23:06.104Z,63.40
2023-09-23T15:27:24.652Z,63.39
2023-09-23T15:31:42.195Z,62.81
2023-09-23T15:35:58.652Z,62.30
2023-09-23T15:40:17.829Z,61.96
2023-09-23T15:44:34.563Z,62.66
2023-09-23T15:48:51.501Z,63.74
2023-09-23T15:53:08.032Z,63.60
2023-09-23T15:57:24.527Z,63.29
2023-09-23T16:01:40.893Z,63.41
2023-09-23T16:05:57.611Z,63.89
2023-09-23T16:10:14.006Z,64.51
2023-09-23T16:14:30.392Z,64.85
2023-09-23T16:18:47.323Z,63.45
2023-09-23T16:23:03.814Z,65.04
2023-09-23T16:27:22.870Z,66.61
2023-09-23T16:31:39.216Z,66.56
2023-09-23T16:35:55.748Z,65.68
2023-09-23T16:40:12.592Z,65.45
2023-09-23T16:44:28.889Z,65.16
2023-09-23T16:48:45.687Z,65.46
2023-09-23T16:53:02.229Z,66.09
2023-09-23T16:57:22.322Z,65.30
2023-09-23T17:01:39.478Z,65.04
2023-09-23T17:05:57.456Z,64.80
2023-09-23T17:10:14.112Z,65.46
2023-09-23T17:14:30.814Z,64.55
2023-09-23T17:18:48.085Z,65.00
2023-09-23T17:23:04.877Z,64.37
2023-09-23T17:27:21.291Z,65.01
2023-09-23T17:31:38.393Z,64.48
2023-09-23T17:36:00.878Z,66.20
2023-09-23T17:40:17.589Z,65.37
2023-09-23T17:44:36.120Z,64.04
2023-09-23T17:48:54.116Z,64.19
2023-09-23T17:53:10.746Z,64.20
2023-09-23T17:57:29.804Z,65.89
2023-09-23T18:01:46.636Z,64.50
2023-09-23T18:06:04.035Z,63.88
2023-09-23T18:10:20.493Z,63.45
2023-09-23T18:14:37.250Z,63.97
2023-09-23T18:18:53.959Z,64.48
2023-09-23T18:23:28.306Z,64.30
2023-09-23T18:27:50.295Z,65.26
2023-09-23T18:32:09.387Z,64.42
2023-09-23T18:36:30.661Z,65.06
2023-09-23T18:40:47.579Z,64.85
2023-09-23T18:45:06.783Z,64.64
2023-09-23T18:49:25.021Z,64.60
2023-09-23T18:53:41.795Z,66.02
2023-09-23T18:57:58.433Z,67.14
2023-09-23T19:02:15.319Z,66.25
2023-09-23T19:06:31.980Z,66.05
2023-09-23T19:10:51.423Z,65.20
2023-09-23T19:15:09.311Z,65.60
2023-09-23T19:19:25.742Z,65.85
2023-09-23T19:23:48.375Z,65.81
2023-09-23T19:28:05.399Z,66.17
2023-09-23T19:32:21.673Z,66.91
2023-09-23T19:36:38.531Z,65.82
2023-09-23T19:40:54.882Z,65.21
2023-09-23T19:45:12.637Z,65.73
2023-09-23T19:49:32.038Z,68.05
2023-09-23T19:53:48.597Z,67.91
2023-09-23T19:58:08.728Z,66.90
2023-09-23T20:02:26.044Z,68.56
2023-09-23T20:06:43.160Z,67.41
2023-09-23T20:11:04.189Z,66.57
2023-09-23T20:15:26.476Z,66.97
2023-09-23T20:19:42.877Z,66.19
2023-09-23T20:23:59.420Z,67.01
2023-09-23T20:28:18.966Z,67.64
2023-09-23T20:32:41.956Z,67.35
2023-09-23T20:37:00.912Z,67.70
2023-09-23T20:41:17.306Z,68.24
2023-09-23T20:45:36.047Z,70.22
2023-09-23T20:49:52.425Z,68.39
2023-09-23T20:54:08.799Z,68.87
2023-09-23T20:58:25.633Z,68.29
2023-09-23T21:02:43.591Z,69.11
2023-09-23T21:07:00.308Z,68.55
2023-09-23T21:11:18.312Z,68.26
2023-09-23T21:15:34.708Z,69.27
2023-09-23T21:19:51.680Z,68.81
2023-09-23T21:24:08.604Z,69.97
2023-09-23T21:28:25.062Z,69.87
2023-09-23T21:32:41.686Z,69.28
2023-09-23T21:36:58.726Z,68.96
2023-09-23T21:41:16.128Z,69.97
2023-09-23T21:45:32.711Z,69.37
2023-09-23T21:49:49.044Z,68.76
2023-09-23T21:54:06.081Z,69.51
2023-09-23T21:58:23.255Z,69.06
2023-09-23T22:02:39.706Z,70.17
2023-09-23T22:06:56.929Z,70.86
2023-09-23T22:11:13.666Z,69.42
2023-09-23T22:15:30.921Z,69.96
2023-09-23T22:19:47.275Z,70.33
2023-09-23T22:24:07.274Z,70.27
2023-09-23T22:28:23.652Z,70.42
2023-09-23T22:32:40.278Z,69.59
2023-09-23T22:36:56.675Z,69.42
2023-09-23T22:41:13.117Z,68.48
2023-09-23T22:45:38.526Z,69.08
2023-09-23T22:49:56.660Z,69.12
2023-09-23T22:54:13.271Z,67.53
2023-09-23T22:58:29.626Z,68.18
2023-09-23T23:02:47.705Z,68.07
2023-09-23T23:07:04.446Z,67.17
2023-09-23T23:11:22.127Z,67.70
2023-09-23T23:15:39.757Z,67.49
2023-09-23T23:19:57.071Z,66.81
2023-09-23T23:24:13.943Z,67.94
2023-09-23T23:28:32.429Z,69.12
2023-09-23T23:32:49.888Z,68.58
2023-09-23T23:37:08.487Z,67.56
2023-09-23T23:41:25.261Z,67.97
2023-09-23T23:45:41.655Z,68.49
2023-09-23T23:50:01.260Z,67.50
2023-09-23T23:54:18.261Z,65.59
2023-09-23T23:58:35.173Z,65.77
